Time;durP1;ratioP1;P1;durP2;ratioP2;P2;SDS_P1;SDS_P2;PMS_P1;PMS_P2;Temp;Humidity;BMP_temperature;BMP_pressure;BME280_temperature;BME280_humidity;BME280_pressure;Samples;Min_cycle;Max_cycle;Signal;HPM_P1;HPM_P2
2023/12/24 00:01:11;;;;;;;1.53;1.27;;;10.90;99.90;;;;;;5073769;28;20192;-74
2023/12/24 00:03:38;;;;;;;9.87;2.30;;;10.90;99.90;;;;;;5074018;28;20451;-75
2023/12/24 00:06:04;;;;;;;0.90;0.80;;;10.80;99.90;;;;;;5073096;28;20880;-75
2023/12/24 00:08:29;;;;;;;1.23;0.93;;;10.90;99.90;;;;;;5074182;28;20911;-75
2023/12/24 00:10:56;;;;;;;1.33;1.07;;;10.90;99.90;;;;;;5073645;28;20415;-74
2023/12/24 00:13:22;;;;;;;1.10;1.00;;;10.80;99.90;;;;;;5073645;28;20186;-74
2023/12/24 00:15:48;;;;;;;3.23;1.00;;;10.80;99.90;;;;;;5073765;28;20459;-74
2023/12/24 00:18:13;;;;;;;1.73;1.07;;;10.80;99.90;;;;;;5073757;28;20397;-74
2023/12/24 00:20:39;;;;;;;2.07;1.20;;;10.80;99.90;;;;;;5071892;28;20170;-74
2023/12/24 00:23:08;;;;;;;1.30;0.80;;;10.70;99.90;;;;;;5073459;28;20507;-75
2023/12/24 00:25:35;;;;;;;1.20;0.80;;;10.60;99.90;;;;;;5073500;28;20167;-74
2023/12/24 00:28:01;;;;;;;1.60;1.10;;;10.60;99.90;;;;;;5073544;28;20409;-76
2023/12/24 00:30:27;;;;;;;5.73;1.43;;;10.50;99.90;;;;;;5073369;28;20683;-75
2023/12/24 00:32:57;;;;;;;1.30;0.80;;;10.50;99.90;;;;;;5073315;28;20672;-74
2023/12/24 00:35:23;;;;;;;1.50;1.10;;;10.50;99.90;;;;;;5073367;28;20441;-75
2023/12/24 00:37:49;;;;;;;1.03;0.83;;;10.40;99.90;;;;;;5073365;28;20420;-75
2023/12/24 00:40:17;;;;;;;1.37;1.00;;;10.40;99.90;;;;;;5073087;28;20397;-75
2023/12/24 00:42:43;;;;;;;1.77;1.20;;;10.40;99.90;;;;;;5073218;28;20553;-76
2023/12/24 00:45:09;;;;;;;2.27;1.57;;;10.40;99.90;;;;;;5073160;28;20460;-75
2023/12/24 00:47:35;;;;;;;1.20;1.10;;;10.30;99.90;;;;;;5073255;28;20432;-75
2023/12/24 00:50:00;;;;;;;4.60;0.97;;;10.40;99.90;;;;;;5073116;28;20397;-75
2023/12/24 00:52:26;;;;;;;1.30;0.87;;;10.40;99.90;;;;;;5072597;28;20620;-75
2023/12/24 00:54:52;;;;;;;3.20;1.00;;;10.40;99.90;;;;;;5072964;28;20231;-75
2023/12/24 00:57:17;;;;;;;1.40;1.20;;;10.40;99.90;;;;;;5072948;28;20175;-74
2023/12/24 00:59:43;;;;;;;0.90;0.80;;;10.40;99.90;;;;;;5071645;28;20166;-74
2023/12/24 01:02:08;;;;;;;1.50;1.40;;;10.40;99.90;;;;;;5072591;28;20185;-74
2023/12/24 01:04:34;;;;;;;1.03;0.93;;;10.30;99.90;;;;;;5071556;28;20433;-74
2023/12/24 01:07:00;;;;;;;1.13;1.00;;;10.20;99.90;;;;;;5072688;28;20458;-75
2023/12/24 01:09:26;;;;;;;1.97;1.10;;;10.30;99.90;;;;;;5072723;28;20166;-75
2023/12/24 01:11:53;;;;;;;0.77;0.67;;;10.20;99.90;;;;;;5072398;28;20432;-75
2023/12/24 01:14:18;;;;;;;0.87;0.80;;;10.20;99.90;;;;;;5072291;28;20193;-74
2023/12/24 01:16:44;;;;;;;1.30;0.63;;;10.30;99.90;;;;;;5072323;28;20868;-74
2023/12/24 01:19:10;;;;;;;0.90;0.80;;;10.20;99.90;;;;;;5072573;28;20792;-75
2023/12/24 01:21:35;;;;;;;3.97;1.00;;;10.20;99.90;;;;;;5072135;28;20205;-75
2023/12/24 01:24:01;;;;;;;1.00;0.80;;;10.10;99.90;;;;;;5072075;28;20173;-74
2023/12/24 01:26:26;;;;;;;1.13;1.03;;;10.10;99.90;;;;;;5072466;28;20185;-74
2023/12/24 01:28:52;;;;;;;0.90;0.80;;;10.10;99.90;;;;;;5072408;28;20566;-76
2023/12/24 01:31:17;;;;;;;0.87;0.67;;;10.00;99.90;;;;;;5071996;28;20170;-74
2023/12/24 01:33:43;;;;;;;1.87;0.80;;;10.00;99.90;;;;;;5072109;28;20228;-74
2023/12/24 01:36:09;;;;;;;4.20;0.80;;;10.00;99.90;;;;;;5072052;28;20193;-76
2023/12/24 01:38:35;;;;;;;4.70;0.83;;;10.00;99.90;;;;;;5072192;28;20166;-74
2023/12/24 01:41:00;;;;;;;1.20;0.90;;;10.10;99.90;;;;;;5070848;28;20979;-75
2023/12/24 01:43:26;;;;;;;1.07;0.80;;;10.10;99.90;;;;;;5072043;28;20269;-74
2023/12/24 01:45:52;;;;;;;0.80;0.70;;;10.10;99.90;;;;;;5072112;28;20245;-74
2023/12/24 01:48:18;;;;;;;0.90;0.70;;;10.20;99.90;;;;;;5072107;28;20166;-76
2023/12/24 01:50:46;;;;;;;2.20;0.60;;;10.20;99.90;;;;;;5071856;28;20495;-75
2023/12/24 01:53:13;;;;;;;0.80;0.80;;;10.20;99.90;;;;;;5071730;28;21080;-75
2023/12/24 01:55:43;;;;;;;1.27;0.80;;;10.30;99.90;;;;;;5071929;28;20520;-73
2023/12/24 01:58:10;;;;;;;1.10;0.97;;;10.20;99.90;;;;;;5071908;28;20503;-74
2023/12/24 02:00:36;;;;;;;0.83;0.70;;;10.10;99.90;;;;;;5071777;28;20495;-75
2023/12/24 02:03:03;;;;;;;0.80;0.67;;;10.10;99.90;;;;;;5071831;28;20661;-75
2023/12/24 02:05:29;;;;;;;0.80;0.60;;;10.10;99.90;;;;;;5071903;28;20593;-73
2023/12/24 02:08:00;;;;;;;0.87;0.73;;;10.20;99.90;;;;;;5071861;28;20409;-74
2023/12/24 02:10:26;;;;;;;0.80;0.70;;;10.10;99.90;;;;;;5071729;28;20174;-75
2023/12/24 02:12:51;;;;;;;0.90;0.80;;;10.10;99.90;;;;;;5071724;28;20431;-74
2023/12/24 02:15:17;;;;;;;1.30;1.10;;;10.10;99.90;;;;;;5071635;28;20292;-75
2023/12/24 02:17:43;;;;;;;4.70;0.87;;;10.10;99.90;;;;;;5071814;28;20656;-75
2023/12/24 02:20:10;;;;;;;0.90;0.60;;;10.10;99.90;;;;;;5071703;28;20170;-75
2023/12/24 02:22:36;;;;;;;0.93;0.60;;;10.10;99.90;;;;;;5071429;28;20423;-74
2023/12/24 02:25:02;;;;;;;3.03;0.90;;;10.20;99.90;;;;;;5071612;28;20405;-75
2023/12/24 02:27:43;;;;;;;4.10;1.07;;;10.10;99.90;;;;;;5071668;28;20171;-75
2023/12/24 02:30:17;;;;;;;1.20;0.80;;;10.10;99.90;;;;;;5075559;28;20404;-75
2023/12/24 02:32:43;;;;;;;0.80;0.50;;;10.10;99.90;;;;;;5075752;28;20784;-75
2023/12/24 02:35:10;;;;;;;0.80;0.60;;;10.10;99.90;;;;;;5075590;28;20492;-75
2023/12/24 02:37:36;;;;;;;1.10;0.60;;;10.10;99.90;;;;;;5075626;28;20401;-74
2023/12/24 02:40:01;;;;;;;0.70;0.50;;;10.10;99.90;;;;;;5075623;28;20407;-75
2023/12/24 02:42:27;;;;;;;1.20;0.60;;;10.10;99.90;;;;;;5075229;28;20194;-75
2023/12/24 02:44:52;;;;;;;0.70;0.40;;;10.10;99.90;;;;;;5075477;28;20194;-75
2023/12/24 02:47:18;;;;;;;0.90;0.60;;;10.20;99.90;;;;;;5075378;28;20636;-74
2023/12/24 02:49:43;;;;;;;0.70;0.50;;;10.10;99.90;;;;;;5075444;28;20170;-75
2023/12/24 02:52:09;;;;;;;0.80;0.50;;;10.10;99.90;;;;;;5074920;28;20182;-75
2023/12/24 02:54:34;;;;;;;0.80;0.60;;;10.10;99.90;;;;;;5073962;28;20178;-75
2023/12/24 02:57:00;;;;;;;2.93;0.70;;;10.10;99.90;;;;;;5075249;28;20534;-73
2023/12/24 02:59:28;;;;;;;0.80;0.60;;;10.00;99.90;;;;;;5075198;28;20167;-71
2023/12/24 03:01:53;;;;;;;1.63;0.60;;;10.10;99.90;;;;;;5074887;28;20182;-71
2023/12/24 03:04:19;;;;;;;1.53;0.67;;;10.10;99.90;;;;;;5075031;28;20409;-71
2023/12/24 03:06:44;;;;;;;1.00;0.70;;;10.00;99.90;;;;;;5075125;28;20173;-71
2023/12/24 03:09:10;;;;;;;0.80;0.60;;;10.00;99.90;;;;;;5075099;28;20649;-71
2023/12/24 03:11:36;;;;;;;0.90;0.60;;;10.00;99.90;;;;;;5074701;28;20190;-71
2023/12/24 03:14:02;;;;;;;3.50;1.30;;;10.00;99.90;;;;;;5074887;28;20415;-71
2023/12/24 03:16:28;;;;;;;0.90;0.60;;;10.00;99.90;;;;;;5074908;28;20844;-71
2023/12/24 03:18:53;;;;;;;0.90;0.70;;;10.00;99.90;;;;;;5073675;28;20415;-71
2023/12/24 03:21:19;;;;;;;1.00;0.90;;;10.00;99.90;;;;;;5073364;28;20158;-71
2023/12/24 03:23:44;;;;;;;2.30;1.00;;;10.00;99.90;;;;;;5074833;28;20171;-71
2023/12/24 03:26:23;;;;;;;1.00;0.90;;;10.00;99.90;;;;;;5075034;28;20799;-71
2023/12/24 03:28:49;;;;;;;1.00;0.80;;;9.90;99.90;;;;;;5074800;28;20528;-71
2023/12/24 03:31:15;;;;;;;1.53;0.70;;;10.00;99.90;;;;;;5074545;28;20933;-71
2023/12/24 03:33:41;;;;;;;0.80;0.70;;;9.90;99.90;;;;;;5074745;28;20502;-72
2023/12/24 03:36:09;;;;;;;3.30;2.13;;;9.80;99.90;;;;;;5074569;28;20543;-71
2023/12/24 03:38:36;;;;;;;1.20;1.10;;;9.90;99.90;;;;;;5074519;28;20304;-70
2023/12/24 03:41:02;;;;;;;1.00;0.83;;;9.90;99.90;;;;;;5073089;28;20412;-71
2023/12/24 03:43:28;;;;;;;1.63;1.10;;;9.90;99.90;;;;;;5074342;28;20392;-71
2023/12/24 03:45:54;;;;;;;0.93;0.83;;;9.90;99.90;;;;;;5074451;28;20392;-71
2023/12/24 03:48:19;;;;;;;1.00;0.90;;;9.90;99.90;;;;;;5074371;28;20554;-71
2023/12/24 03:50:45;;;;;;;1.07;0.70;;;9.90;99.90;;;;;;5074109;28;20173;-71
2023/12/24 03:53:11;;;;;;;1.70;0.80;;;9.90;99.90;;;;;;5073982;28;20206;-71
2023/12/24 03:55:36;;;;;;;0.80;0.70;;;9.90;99.90;;;;;;5074115;28;20197;-71
2023/12/24 03:58:02;;;;;;;0.80;0.70;;;10.00;99.90;;;;;;5074199;28;20219;-71
2023/12/24 04:00:27;;;;;;;2.30;1.00;;;9.90;99.90;;;;;;5073933;28;20162;-72
2023/12/24 04:02:55;;;;;;;1.10;0.60;;;9.90;99.90;;;;;;5074024;28;20188;-70
2023/12/24 04:05:20;;;;;;;2.37;1.07;;;9.90;99.90;;;;;;5074024;28;20536;-71
2023/12/24 04:07:46;;;;;;;2.40;1.30;;;9.90;99.90;;;;;;5073055;28;20403;-73
2023/12/24 04:10:11;;;;;;;0.80;0.60;;;10.00;99.90;;;;;;5074063;28;20249;-70
2023/12/24 04:12:37;;;;;;;1.10;0.70;;;10.00;99.90;;;;;;5073588;28;20213;-72
2023/12/24 04:15:04;;;;;;;0.80;0.70;;;10.00;99.90;;;;;;5073654;28;20166;-71
2023/12/24 04:17:30;;;;;;;2.00;0.70;;;10.00;99.90;;;;;;5073789;28;20231;-72
2023/12/24 04:19:55;;;;;;;0.90;0.60;;;10.00;99.90;;;;;;5073738;28;20393;-71
2023/12/24 04:22:21;;;;;;;0.80;0.60;;;10.10;99.90;;;;;;5073391;28;20324;-72
2023/12/24 04:24:46;;;;;;;0.80;0.60;;;10.00;99.90;;;;;;5073633;28;20159;-71
2023/12/24 04:27:12;;;;;;;0.70;0.50;;;10.00;99.90;;;;;;5073574;28;20166;-71
2023/12/24 04:29:37;;;;;;;0.80;0.50;;;10.10;99.90;;;;;;5073563;28;20167;-71
2023/12/24 04:32:03;;;;;;;1.00;0.60;;;10.00;99.90;;;;;;5071961;28;20289;-71
2023/12/24 04:34:30;;;;;;;0.90;0.70;;;10.00;99.90;;;;;;5073347;28;20249;-71
2023/12/24 04:36:56;;;;;;;1.43;1.20;;;10.00;99.90;;;;;;5073261;28;20198;-71
2023/12/24 04:39:21;;;;;;;3.70;0.97;;;10.10;99.90;;;;;;5073391;28;20473;-71
2023/12/24 04:41:47;;;;;;;0.70;0.60;;;10.10;99.90;;;;;;5073028;28;20186;-70
2023/12/24 04:44:12;;;;;;;0.70;0.50;;;10.10;99.90;;;;;;5073230;28;20261;-71
2023/12/24 04:46:42;;;;;;;4.60;0.80;;;10.10;99.90;;;;;;5073239;28;20283;-70
2023/12/24 04:49:07;;;;;;;1.17;0.77;;;10.20;99.90;;;;;;5073160;28;20249;-71
2023/12/24 04:51:34;;;;;;;3.57;1.83;;;10.20;99.90;;;;;;5072484;28;20459;-71
2023/12/24 04:53:59;;;;;;;0.97;0.60;;;10.20;99.90;;;;;;5072892;28;20200;-71
2023/12/24 04:56:25;;;;;;;0.70;0.50;;;10.20;99.90;;;;;;5072943;28;20954;-71
2023/12/24 04:58:51;;;;;;;0.70;0.53;;;10.20;99.90;;;;;;5073013;28;20170;-70
2023/12/24 05:01:17;;;;;;;1.00;0.53;;;10.20;99.90;;;;;;5072679;28;20245;-71
2023/12/24 05:03:43;;;;;;;0.70;0.50;;;10.20;99.90;;;;;;5072720;28;20436;-70
2023/12/24 05:06:09;;;;;;;1.20;0.50;;;10.10;99.90;;;;;;5072808;28;20530;-71
2023/12/24 05:08:34;;;;;;;0.70;0.50;;;10.20;99.90;;;;;;5072746;28;20479;-70
2023/12/24 05:11:07;;;;;;;0.70;0.50;;;10.20;99.90;;;;;;5072420;28;20186;-72
2023/12/24 05:13:33;;;;;;;0.80;0.60;;;10.20;99.90;;;;;;5072609;28;20196;-72
2023/12/24 05:15:59;;;;;;;0.70;0.50;;;10.20;99.90;;;;;;5072608;28;20444;-71
2023/12/24 05:18:24;;;;;;;0.70;0.50;;;10.20;99.90;;;;;;5071248;28;20416;-71
2023/12/24 05:20:50;;;;;;;0.70;0.50;;;10.20;99.90;;;;;;5072330;28;20193;-71
2023/12/24 05:23:18;;;;;;;1.00;0.57;;;10.20;99.90;;;;;;5071147;28;20189;-71
2023/12/24 05:25:43;;;;;;;0.70;0.50;;;10.20;99.90;;;;;;5072541;28;20166;-71
2023/12/24 05:28:09;;;;;;;0.70;0.50;;;10.20;99.90;;;;;;5072437;28;20411;-71
2023/12/24 05:30:35;;;;;;;0.70;0.50;;;10.20;99.90;;;;;;5072258;28;20253;-71
2023/12/24 05:33:00;;;;;;;1.07;0.53;;;10.20;99.90;;;;;;5072339;28;20452;-71
2023/12/24 05:35:26;;;;;;;0.70;0.50;;;10.20;99.90;;;;;;5072258;28;20205;-71
2023/12/24 05:37:51;;;;;;;0.70;0.50;;;10.20;99.90;;;;;;5072308;28;20165;-71
2023/12/24 05:40:17;;;;;;;0.70;0.60;;;10.20;99.90;;;;;;5072040;28;20216;-70
2023/12/24 05:42:43;;;;;;;1.63;0.50;;;10.20;99.90;;;;;;5072098;28;20186;-72
2023/12/24 05:45:12;;;;;;;0.80;0.50;;;10.20;99.90;;;;;;5071879;28;20170;-72
2023/12/24 05:47:38;;;;;;;0.70;0.50;;;10.20;99.90;;;;;;5072128;28;20637;-71
2023/12/24 05:50:08;;;;;;;0.80;0.50;;;10.20;99.90;;;;;;5071362;28;20844;-71
2023/12/24 05:52:33;;;;;;;0.90;0.70;;;10.20;99.90;;;;;;5071474;28;20433;-71
2023/12/24 05:55:00;;;;;;;1.20;0.50;;;10.10;99.90;;;;;;5071957;28;20827;-72
2023/12/24 05:57:25;;;;;;;0.70;0.50;;;10.10;99.90;;;;;;5072043;28;20163;-71
2023/12/24 05:59:51;;;;;;;0.70;0.60;;;10.10;99.90;;;;;;5071995;28;20896;-71
2023/12/24 06:02:18;;;;;;;21.43;11.97;;;10.10;99.90;;;;;;5071592;28;20769;-72
2023/12/24 06:04:43;;;;;;;1.20;0.83;;;10.10;99.90;;;;;;5071331;28;20575;-70
2023/12/24 06:07:09;;;;;;;0.70;0.50;;;10.10;99.90;;;;;;5071948;28;20412;-72
2023/12/24 06:09:35;;;;;;;0.70;0.50;;;10.10;99.90;;;;;;5071957;28;20173;-72
2023/12/24 06:12:00;;;;;;;3.17;0.50;;;10.10;99.90;;;;;;5071893;28;20194;-71
2023/12/24 06:14:26;;;;;;;0.90;0.60;;;10.10;99.90;;;;;;5071748;28;20182;-71
2023/12/24 06:16:52;;;;;;;0.70;0.50;;;10.10;99.90;;;;;;5071657;28;20186;-71
2023/12/24 06:19:17;;;;;;;0.90;0.50;;;10.10;99.90;;;;;;5071830;28;20470;-70
2023/12/24 06:21:43;;;;;;;0.70;0.40;;;10.10;99.90;;;;;;5071361;28;20736;-72
2023/12/24 06:24:08;;;;;;;0.70;0.40;;;10.10;99.90;;;;;;5072066;28;20170;-71
2023/12/24 06:26:34;;;;;;;1.20;0.83;;;10.10;99.90;;;;;;5071720;28;20178;-72
2023/12/24 06:28:59;;;;;;;2.40;0.60;;;10.10;99.90;;;;;;5071714;28;20174;-71
2023/12/24 06:31:25;;;;;;;0.80;0.70;;;10.10;99.90;;;;;;5071265;28;20197;-71
2023/12/24 06:33:51;;;;;;;2.03;0.60;;;10.20;99.90;;;;;;5071461;28;20182;-72
2023/12/24 06:36:17;;;;;;;0.70;0.50;;;10.20;99.90;;;;;;5071309;28;20251;-71
2023/12/24 06:38:43;;;;;;;0.73;0.50;;;10.20;99.90;;;;;;5070139;28;20415;-71
2023/12/24 06:41:09;;;;;;;2.10;0.50;;;10.20;99.90;;;;;;5071091;28;20405;-71
2023/12/24 06:43:36;;;;;;;0.70;0.50;;;10.20;99.90;;;;;;5071606;28;20187;-71
2023/12/24 06:46:01;;;;;;;0.70;0.50;;;10.30;99.90;;;;;;5071538;28;20408;-71
2023/12/24 06:48:27;;;;;;;0.70;0.57;;;10.30;99.90;;;;;;5071420;28;20408;-72
2023/12/24 06:50:52;;;;;;;1.93;0.50;;;10.30;99.90;;;;;;5071274;28;20182;-71
2023/12/24 06:53:18;;;;;;;0.80;0.50;;;10.40;99.90;;;;;;5071179;28;20205;-72
2023/12/24 06:55:43;;;;;;;3.03;0.90;;;10.40;99.90;;;;;;5070145;28;20201;-72
2023/12/24 06:58:09;;;;;;;0.70;0.50;;;10.40;99.90;;;;;;5071422;28;20166;-72
2023/12/24 07:00:35;;;;;;;0.90;0.60;;;10.40;99.90;;;;;;5071251;28;20204;-71
2023/12/24 07:03:00;;;;;;;0.70;0.50;;;10.40;99.90;;;;;;5071217;28;20202;-70
2023/12/24 07:05:27;;;;;;;0.70;0.50;;;10.40;99.90;;;;;;5071400;28;20178;-72
2023/12/24 07:07:53;;;;;;;7.60;4.13;;;10.40;99.90;;;;;;5071409;28;20637;-72
2023/12/24 07:10:19;;;;;;;2.40;2.00;;;10.40;99.90;;;;;;5071005;28;20419;-71
2023/12/24 07:12:44;;;;;;;0.70;0.50;;;10.50;99.90;;;;;;5070990;28;20221;-71
2023/12/24 07:15:10;;;;;;;0.70;0.50;;;10.50;99.90;;;;;;5073164;28;20178;-71
2023/12/24 07:17:35;;;;;;;0.73;0.50;;;10.60;99.90;;;;;;5074987;28;20749;-72
2023/12/24 07:20:01;;;;;;;0.80;0.60;;;10.60;99.90;;;;;;5074921;28;20174;-71
2023/12/24 07:22:26;;;;;;;1.10;0.50;;;10.60;99.90;;;;;;5074712;28;20194;-71
2023/12/24 07:24:52;;;;;;;0.90;0.50;;;10.60;99.90;;;;;;5074683;28;20179;-71
2023/12/24 07:27:17;;;;;;;1.83;0.60;;;10.60;99.90;;;;;;5074817;28;20170;-71
2023/12/24 07:29:43;;;;;;;0.70;0.50;;;10.60;99.90;;;;;;5074715;28;20212;-71
2023/12/24 07:32:09;;;;;;;0.80;0.60;;;10.70;99.90;;;;;;5074326;28;20228;-72
2023/12/24 07:34:34;;;;;;;1.90;0.60;;;10.60;99.90;;;;;;5074640;28;20224;-71
2023/12/24 07:37:00;;;;;;;1.00;0.50;;;10.60;99.90;;;;;;5074537;28;20194;-71
2023/12/24 07:39:25;;;;;;;0.70;0.57;;;10.70;99.90;;;;;;5074578;28;20185;-71
2023/12/24 07:41:51;;;;;;;0.70;0.50;;;10.70;99.90;;;;;;5074260;28;20287;-70
2023/12/24 07:44:17;;;;;;;0.70;0.50;;;10.70;99.90;;;;;;5074474;28;20162;-72
2023/12/24 07:46:43;;;;;;;0.90;0.60;;;10.80;99.90;;;;;;5074376;28;20166;-71
2023/12/24 07:49:09;;;;;;;1.10;0.60;;;10.80;99.90;;;;;;5074220;28;20244;-70
2023/12/24 07:51:35;;;;;;;1.00;0.70;;;10.70;99.90;;;;;;5073958;28;20519;-71
2023/12/24 07:54:02;;;;;;;0.97;0.70;;;10.80;99.90;;;;;;5074135;28;20190;-71
2023/12/24 07:56:27;;;;;;;0.80;0.60;;;10.80;99.90;;;;;;5074223;28;20186;-71
2023/12/24 07:58:53;;;;;;;0.80;0.60;;;10.90;99.90;;;;;;5074206;28;20447;-72
2023/12/24 08:01:18;;;;;;;0.80;0.70;;;11.10;99.90;;;;;;5073779;28;20162;-71
2023/12/24 08:03:44;;;;;;;1.00;0.67;;;11.40;99.90;;;;;;5074024;28;20162;-71
2023/12/24 08:06:09;;;;;;;1.00;0.70;;;11.60;99.90;;;;;;5072800;28;20170;-71
2023/12/24 08:08:35;;;;;;;0.83;0.70;;;11.80;99.90;;;;;;5074061;28;20166;-71
2023/12/24 08:11:00;;;;;;;0.80;0.50;;;11.90;99.90;;;;;;5073811;28;20174;-71
2023/12/24 08:13:26;;;;;;;1.00;0.60;;;12.10;99.90;;;;;;5073695;28;20258;-71
2023/12/24 08:15:51;;;;;;;0.80;0.60;;;12.30;99.90;;;;;;5073792;28;20198;-72
2023/12/24 08:18:17;;;;;;;0.90;0.70;;;12.40;99.90;;;;;;5073748;28;20166;-72
2023/12/24 08:20:42;;;;;;;1.47;0.63;;;12.50;99.90;;;;;;5073651;28;20703;-71
2023/12/24 08:23:09;;;;;;;0.80;0.60;;;12.50;99.90;;;;;;5072918;28;20179;-70
2023/12/24 08:25:34;;;;;;;6.20;0.83;;;12.40;99.90;;;;;;5073392;28;20185;-70
2023/12/24 08:28:01;;;;;;;0.90;0.70;;;12.30;99.90;;;;;;5073243;28;20400;-70
2023/12/24 08:30:28;;;;;;;1.30;0.60;;;12.10;99.90;;;;;;5073334;28;20564;-70
2023/12/24 08:32:53;;;;;;;1.07;0.60;;;12.00;99.90;;;;;;5073359;28;20420;-70
2023/12/24 08:35:19;;;;;;;2.13;0.70;;;11.80;99.90;;;;;;5073401;28;20397;-71
2023/12/24 08:37:44;;;;;;;0.73;0.50;;;11.70;99.90;;;;;;5073431;28;20162;-69
2023/12/24 08:40:11;;;;;;;0.90;0.60;;;11.70;99.90;;;;;;5073455;28;20163;-69
2023/12/24 08:42:36;;;;;;;1.13;0.60;;;11.60;99.90;;;;;;5073049;28;20182;-70
2023/12/24 08:45:02;;;;;;;4.30;3.03;;;11.60;99.90;;;;;;5073153;28;20408;-69
2023/12/24 08:47:28;;;;;;;1.20;0.80;;;11.40;99.90;;;;;;5073261;28;20190;-70
2023/12/24 08:49:53;;;;;;;0.80;0.50;;;11.30;99.90;;;;;;5073185;28;20408;-71
2023/12/24 08:52:20;;;;;;;1.00;0.70;;;11.30;99.90;;;;;;5072838;28;20246;-71
2023/12/24 08:54:46;;;;;;;1.33;0.63;;;11.30;99.90;;;;;;5073206;28;20166;-70
2023/12/24 08:57:11;;;;;;;0.80;0.60;;;11.20;99.90;;;;;;5072950;28;20466;-70
2023/12/24 08:59:37;;;;;;;0.90;0.60;;;11.20;99.90;;;;;;5072933;28;20228;-70
2023/12/24 09:02:02;;;;;;;1.87;0.80;;;11.20;99.90;;;;;;5072694;28;20193;-69
2023/12/24 09:04:28;;;;;;;0.70;0.50;;;11.20;99.90;;;;;;5072956;28;20170;-71
2023/12/24 09:06:53;;;;;;;0.70;0.50;;;11.30;99.90;;;;;;5072876;28;20243;-70
2023/12/24 09:09:19;;;;;;;0.70;0.50;;;11.30;99.90;;;;;;5072913;28;20197;-70
2023/12/24 09:11:44;;;;;;;1.53;0.50;;;11.40;99.90;;;;;;5072555;28;20186;-70
2023/12/24 09:14:10;;;;;;;2.17;0.60;;;11.40;99.90;;;;;;5072266;28;20543;-70
2023/12/24 09:16:36;;;;;;;1.03;0.70;;;11.40;99.90;;;;;;5072712;28;20209;-70
2023/12/24 09:19:01;;;;;;;4.40;0.70;;;11.40;99.90;;;;;;5072584;28;20248;-70
2023/12/24 09:21:27;;;;;;;1.33;0.80;;;11.50;99.90;;;;;;5072414;28;20194;-70
2023/12/24 09:23:54;;;;;;;0.70;0.47;;;11.50;99.90;;;;;;5072656;28;20159;-71
2023/12/24 09:26:20;;;;;;;1.00;0.60;;;11.60;99.90;;;;;;5072342;28;20864;-71
2023/12/24 09:28:46;;;;;;;2.37;1.70;;;11.50;99.90;;;;;;5072357;28;20503;-70
2023/12/24 09:31:11;;;;;;;1.30;0.63;;;11.60;99.90;;;;;;5072185;28;20240;-70
2023/12/24 09:33:37;;;;;;;0.97;0.70;;;11.50;99.90;;;;;;5072376;28;20220;-69
2023/12/24 09:36:07;;;;;;;1.00;0.67;;;11.50;99.90;;;;;;5072280;28;20189;-70
2023/12/24 09:38:33;;;;;;;0.87;0.63;;;11.40;99.90;;;;;;5071474;28;20162;-71
2023/12/24 09:40:58;;;;;;;1.30;0.60;;;11.50;99.90;;;;;;5072016;28;20462;-70
2023/12/24 09:43:25;;;;;;;0.87;0.60;;;11.60;99.90;;;;;;5072061;28;20447;-70
2023/12/24 09:45:50;;;;;;;0.80;0.60;;;11.50;99.90;;;;;;5072280;28;20170;-70
2023/12/24 09:48:16;;;;;;;0.70;0.50;;;11.50;99.90;;;;;;5072140;28;20960;-70
2023/12/24 09:50:41;;;;;;;1.23;0.60;;;11.60;99.90;;;;;;5071972;28;20163;-70
2023/12/24 09:53:07;;;;;;;0.70;0.50;;;11.60;99.90;;;;;;5071837;28;20237;-69
2023/12/24 09:55:32;;;;;;;0.73;0.57;;;11.70;99.90;;;;;;5072091;28;20205;-70
2023/12/24 09:57:58;;;;;;;1.37;0.83;;;11.70;99.90;;;;;;5071961;28;20174;-70
2023/12/24 10:00:24;;;;;;;0.90;0.60;;;11.70;99.90;;;;;;5071872;28;20169;-70
2023/12/24 10:02:49;;;;;;;0.80;0.70;;;11.80;99.90;;;;;;5071948;28;20218;-71
2023/12/24 10:05:15;;;;;;;1.10;0.60;;;11.80;99.90;;;;;;5071927;28;20166;-70
2023/12/24 10:07:45;;;;;;;0.70;0.53;;;11.90;99.90;;;;;;5072055;28;20190;-70
2023/12/24 10:10:13;;;;;;;0.80;0.60;;;11.70;99.90;;;;;;5071836;28;20404;-70
2023/12/24 10:12:40;;;;;;;0.70;0.50;;;11.80;99.90;;;;;;5071593;28;20420;-71
2023/12/24 10:15:05;;;;;;;0.70;0.50;;;11.80;99.90;;;;;;5071774;28;20405;-70
2023/12/24 10:17:32;;;;;;;0.70;0.50;;;11.80;99.90;;;;;;5071849;28;20543;-70
2023/12/24 10:20:02;;;;;;;1.03;0.73;;;11.80;99.90;;;;;;5071800;28;20536;-70
2023/12/24 10:22:28;;;;;;;0.90;0.70;;;11.70;99.90;;;;;;5071247;28;20428;-70
2023/12/24 10:25:06;;;;;;;0.90;0.60;;;11.80;99.90;;;;;;5071706;28;20401;-71
2023/12/24 10:27:32;;;;;;;3.43;0.77;;;11.80;99.90;;;;;;5071737;28;20174;-70
2023/12/24 10:30:12;;;;;;;0.80;0.60;;;11.70;99.90;;;;;;5071697;28;20412;-68
2023/12/24 10:32:47;;;;;;;3.47;0.60;;;11.70;99.90;;;;;;5071625;28;20432;-70
2023/12/24 10:35:22;;;;;;;0.77;0.53;;;11.70;99.90;;;;;;5071538;28;20457;-70
2023/12/24 10:37:48;;;;;;;1.50;0.73;;;11.60;99.90;;;;;;5071672;28;20400;-72
2023/12/24 10:40:14;;;;;;;1.20;0.80;;;11.60;99.90;;;;;;5071657;28;20752;-72
2023/12/24 10:42:40;;;;;;;1.00;0.80;;;11.70;99.90;;;;;;5071311;28;20419;-72
2023/12/24 10:45:07;;;;;;;0.80;0.60;;;11.80;99.90;;;;;;5071520;28;20434;-70
2023/12/24 10:47:34;;;;;;;0.80;0.67;;;11.80;99.90;;;;;;5071605;28;20419;-70
2023/12/24 10:49:59;;;;;;;0.90;0.70;;;11.80;99.90;;;;;;5073292;28;20414;-71
2023/12/24 10:52:25;;;;;;;0.70;0.50;;;11.80;99.90;;;;;;5075124;28;20432;-71
2023/12/24 10:54:53;;;;;;;2.20;0.50;;;11.80;99.90;;;;;;5075423;28;20166;-70
2023/12/24 10:57:34;;;;;;;1.10;0.60;;;11.80;99.90;;;;;;5075269;28;20232;-69
2023/12/24 11:00:12;;;;;;;0.80;0.50;;;11.80;99.90;;;;;;5075350;28;20396;-70
2023/12/24 11:02:42;;;;;;;1.33;0.60;;;11.80;99.90;;;;;;5075054;28;20408;-70
2023/12/24 11:05:08;;;;;;;1.30;0.73;;;11.80;99.90;;;;;;5074893;28;20399;-70
2023/12/24 11:07:33;;;;;;;0.90;0.77;;;11.80;99.90;;;;;;5075127;28;20400;-70
2023/12/24 11:10:04;;;;;;;3.10;0.80;;;11.80;99.90;;;;;;5075104;28;20253;-70
2023/12/24 11:12:31;;;;;;;0.80;0.50;;;11.80;99.90;;;;;;5074824;28;20554;-70
2023/12/24 11:14:58;;;;;;;1.23;0.70;;;11.70;99.90;;;;;;5073662;28;20865;-70
2023/12/24 11:17:38;;;;;;;0.80;0.60;;;11.70;99.90;;;;;;5075111;28;20975;-70
2023/12/24 11:20:26;;;;;;;0.93;0.67;;;11.80;99.90;;;;;;5074926;28;20405;-70
2023/12/24 11:23:18;;;;;;;1.33;0.83;;;11.60;99.90;;;;;;5074827;28;20768;-70
2023/12/24 11:25:48;;;;;;;1.00;0.70;;;11.60;99.90;;;;;;5072807;28;20782;-69
2023/12/24 11:28:23;;;;;;;3.80;0.87;;;11.60;99.90;;;;;;5073637;28;20416;-69
2023/12/24 11:30:51;;;;;;;0.93;0.70;;;11.70;99.90;;;;;;5074151;28;20486;-70
2023/12/24 11:33:32;;;;;;;1.30;1.20;;;11.70;99.90;;;;;;5074353;28;20459;-68
2023/12/24 11:36:02;;;;;;;1.30;0.73;;;11.70;99.90;;;;;;5074449;28;21102;-69
2023/12/24 11:38:34;;;;;;;0.90;0.60;;;11.70;99.90;;;;;;5054486;28;20409;-69
2023/12/24 11:41:10;;;;;;;1.00;0.80;;;11.80;99.90;;;;;;5053680;28;20509;-68
2023/12/24 11:43:37;;;;;;;0.80;0.60;;;11.70;99.90;;;;;;5054272;28;20435;-69
2023/12/24 11:46:03;;;;;;;1.00;0.90;;;11.70;99.90;;;;;;5054319;28;20419;-69
2023/12/24 11:48:31;;;;;;;0.80;0.73;;;11.70;99.90;;;;;;5094361;28;20427;-69
2023/12/24 11:51:10;;;;;;;0.80;0.70;;;11.80;99.90;;;;;;5094414;28;20406;-71
2023/12/24 11:53:37;;;;;;;1.17;0.80;;;11.80;99.90;;;;;;5094510;28;20434;-69
2023/12/24 11:56:16;;;;;;;0.80;0.60;;;12.00;99.90;;;;;;5094386;28;20443;-70
2023/12/24 11:58:55;;;;;;;1.40;0.80;;;11.90;99.90;;;;;;5094558;28;20415;-70
2023/12/24 12:01:28;;;;;;;2.70;0.70;;;11.90;99.90;;;;;;5093125;28;20391;-70
2023/12/24 12:03:57;;;;;;;0.80;0.70;;;11.90;99.90;;;;;;5094270;28;20400;-70
2023/12/24 12:06:33;;;;;;;0.83;0.80;;;11.90;99.90;;;;;;5094332;28;20412;-70
2023/12/24 12:09:03;;;;;;;1.53;0.80;;;12.00;99.90;;;;;;5094273;28;20394;-70
2023/12/24 12:11:29;;;;;;;1.10;0.90;;;12.20;99.90;;;;;;5094012;28;20423;-70
2023/12/24 12:13:55;;;;;;;0.80;0.63;;;12.30;99.90;;;;;;5094119;28;20404;-70
2023/12/24 12:16:20;;;;;;;0.80;0.60;;;12.20;99.90;;;;;;5094108;28;20193;-70
2023/12/24 12:18:46;;;;;;;0.80;0.63;;;12.30;99.90;;;;;;5094241;28;20197;-70
2023/12/24 12:21:11;;;;;;;1.30;0.90;;;12.50;99.90;;;;;;5093813;28;20696;-70
2023/12/24 12:23:40;;;;;;;2.70;2.30;;;12.70;99.90;;;;;;5092669;28;20166;-70
2023/12/24 12:26:07;;;;;;;1.53;1.00;;;12.70;99.90;;;;;;5093925;28;20173;-69
2023/12/24 12:28:36;;;;;;;1.97;0.63;;;12.40;99.90;;;;;;5093861;28;20406;-71
2023/12/24 12:31:02;;;;;;;0.80;0.70;;;12.20;99.90;;;;;;5093668;28;20498;-71
2023/12/24 12:33:27;;;;;;;0.90;0.73;;;12.00;99.90;;;;;;5093602;28;20875;-71
2023/12/24 12:35:55;;;;;;;0.87;0.80;;;11.90;99.90;;;;;;5093689;28;20246;-71
2023/12/24 12:38:21;;;;;;;0.70;0.50;;;11.80;99.90;;;;;;5093619;28;20169;-71
2023/12/24 12:40:49;;;;;;;1.20;0.77;;;11.60;99.90;;;;;;5093468;28;20404;-71
2023/12/24 12:43:16;;;;;;;1.40;0.80;;;11.50;99.90;;;;;;5093455;28;20930;-71
2023/12/24 12:45:41;;;;;;;0.83;0.70;;;11.40;99.90;;;;;;5093789;28;20404;-71